sensor_id;sensor_type;location;lat;lon;timestamp;P1;durP1;ratioP1;P2;durP2;ratioP2
8737;SDS011;4405;49.272;8.590;2023-05-10T00:01:42;1.00;;;1.00;;
8737;SDS011;4405;49.272;8.590;2023-05-10T00:04:08;1.00;;;1.00;;
8737;SDS011;4405;49.272;8.590;2023-05-10T00:06:35;0.90;;;0.90;;
8737;SDS011;4405;49.272;8.590;2023-05-10T00:09:01;2.13;;;0.97;;
8737;SDS011;4405;49.272;8.590;2023-05-10T00:11:28;1.00;;;1.00;;
8737;SDS011;4405;49.272;8.590;2023-05-10T00:13:55;0.90;;;0.90;;
8737;SDS011;4405;49.272;8.590;2023-05-10T00:16:22;0.90;;;0.90;;
8737;SDS011;4405;49.272;8.590;2023-05-10T00:18:48;1.30;;;0.90;;
8737;SDS011;4405;49.272;8.590;2023-05-10T00:21:14;0.90;;;0.90;;
8737;SDS011;4405;49.272;8.590;2023-05-10T00:23:41;0.90;;;0.90;;
8737;SDS011;4405;49.272;8.590;2023-05-10T00:26:07;0.87;;;0.87;;
8737;SDS011;4405;49.272;8.590;2023-05-10T00:28:33;0.80;;;0.80;;
8737;SDS011;4405;49.272;8.590;2023-05-10T00:31:01;0.80;;;0.80;;
8737;SDS011;4405;49.272;8.590;2023-05-10T00:33:27;0.87;;;0.87;;
8737;SDS011;4405;49.272;8.590;2023-05-10T00:35:54;0.77;;;0.77;;
8737;SDS011;4405;49.272;8.590;2023-05-10T00:38:20;0.80;;;0.80;;
8737;SDS011;4405;49.272;8.590;2023-05-10T00:40:46;1.50;;;0.80;;
8737;SDS011;4405;49.272;8.590;2023-05-10T00:43:13;0.60;;;0.60;;
8737;SDS011;4405;49.272;8.590;2023-05-10T00:45:39;0.80;;;0.80;;
8737;SDS011;4405;49.272;8.590;2023-05-10T00:48:07;1.03;;;0.70;;
8737;SDS011;4405;49.272;8.590;2023-05-10T00:50:34;0.80;;;0.80;;
8737;SDS011;4405;49.272;8.590;2023-05-10T00:53:00;0.97;;;0.97;;
8737;SDS011;4405;49.272;8.590;2023-05-10T00:55:28;0.70;;;0.70;;
8737;SDS011;4405;49.272;8.590;2023-05-10T00:57:54;0.80;;;0.80;;
8737;SDS011;4405;49.272;8.590;2023-05-10T01:00:21;1.80;;;0.77;;
8737;SDS011;4405;49.272;8.590;2023-05-10T01:02:48;0.73;;;0.73;;
8737;SDS011;4405;49.272;8.590;2023-05-10T01:05:16;0.70;;;0.70;;
8737;SDS011;4405;49.272;8.590;2023-05-10T01:07:42;0.83;;;0.80;;
8737;SDS011;4405;49.272;8.590;2023-05-10T01:10:09;0.70;;;0.70;;
8737;SDS011;4405;49.272;8.590;2023-05-10T01:12:36;0.70;;;0.70;;
8737;SDS011;4405;49.272;8.590;2023-05-10T01:15:03;0.73;;;0.73;;
8737;SDS011;4405;49.272;8.590;2023-05-10T01:17:30;0.60;;;0.60;;
8737;SDS011;4405;49.272;8.590;2023-05-10T01:19:56;0.50;;;0.50;;
8737;SDS011;4405;49.272;8.590;2023-05-10T01:22:30;0.63;;;0.63;;
8737;SDS011;4405;49.272;8.590;2023-05-10T01:25:08;0.63;;;0.63;;
8737;SDS011;4405;49.272;8.590;2023-05-10T01:28:02;0.60;;;0.60;;
8737;SDS011;4405;49.272;8.590;2023-05-10T01:30:42;0.70;;;0.70;;
8737;SDS011;4405;49.272;8.590;2023-05-10T01:33:15;0.60;;;0.60;;
8737;SDS011;4405;49.272;8.590;2023-05-10T01:35:45;1.50;;;0.70;;
8737;SDS011;4405;49.272;8.590;2023-05-10T01:38:15;0.57;;;0.57;;
8737;SDS011;4405;49.272;8.590;2023-05-10T01:40:44;0.70;;;0.70;;
8737;SDS011;4405;49.272;8.590;2023-05-10T01:43:14;0.93;;;0.70;;
8737;SDS011;4405;49.272;8.590;2023-05-10T01:45:45;0.63;;;0.60;;
8737;SDS011;4405;49.272;8.590;2023-05-10T01:48:14;0.53;;;0.53;;
8737;SDS011;4405;49.272;8.590;2023-05-10T01:50:43;0.47;;;0.47;;
8737;SDS011;4405;49.272;8.590;2023-05-10T01:53:10;0.53;;;0.53;;
8737;SDS011;4405;49.272;8.590;2023-05-10T01:55:39;0.60;;;0.60;;
8737;SDS011;4405;49.272;8.590;2023-05-10T01:58:09;0.63;;;0.63;;
8737;SDS011;4405;49.272;8.590;2023-05-10T02:00:36;0.50;;;0.50;;
8737;SDS011;4405;49.272;8.590;2023-05-10T02:03:03;1.03;;;0.63;;
8737;SDS011;4405;49.272;8.590;2023-05-10T02:05:31;0.80;;;0.80;;
8737;SDS011;4405;49.272;8.590;2023-05-10T02:07:59;0.60;;;0.60;;
8737;SDS011;4405;49.272;8.590;2023-05-10T02:10:27;0.63;;;0.50;;
8737;SDS011;4405;49.272;8.590;2023-05-10T02:12:54;0.70;;;0.70;;
8737;SDS011;4405;49.272;8.590;2023-05-10T02:15:22;1.23;;;0.73;;
8737;SDS011;4405;49.272;8.590;2023-05-10T02:17:48;0.60;;;0.60;;
8737;SDS011;4405;49.272;8.590;2023-05-10T02:20:16;0.70;;;0.70;;
8737;SDS011;4405;49.272;8.590;2023-05-10T02:22:43;0.63;;;0.63;;
8737;SDS011;4405;49.272;8.590;2023-05-10T02:25:12;1.13;;;0.80;;
8737;SDS011;4405;49.272;8.590;2023-05-10T02:27:40;0.67;;;0.67;;
8737;SDS011;4405;49.272;8.590;2023-05-10T02:30:07;0.70;;;0.70;;
8737;SDS011;4405;49.272;8.590;2023-05-10T02:32:35;0.70;;;0.70;;
8737;SDS011;4405;49.272;8.590;2023-05-10T02:35:02;0.70;;;0.70;;
8737;SDS011;4405;49.272;8.590;2023-05-10T02:37:28;1.17;;;0.70;;
8737;SDS011;4405;49.272;8.590;2023-05-10T02:39:55;0.70;;;0.70;;
8737;SDS011;4405;49.272;8.590;2023-05-10T02:42:24;0.70;;;0.70;;
8737;SDS011;4405;49.272;8.590;2023-05-10T02:44:52;0.73;;;0.73;;
8737;SDS011;4405;49.272;8.590;2023-05-10T02:47:19;0.60;;;0.60;;
8737;SDS011;4405;49.272;8.590;2023-05-10T02:49:46;0.73;;;0.70;;
8737;SDS011;4405;49.272;8.590;2023-05-10T02:52:13;0.50;;;0.50;;
8737;SDS011;4405;49.272;8.590;2023-05-10T02:54:43;0.70;;;0.70;;
8737;SDS011;4405;49.272;8.590;2023-05-10T02:57:11;0.70;;;0.70;;
8737;SDS011;4405;49.272;8.590;2023-05-10T02:59:44;0.90;;;0.77;;
8737;SDS011;4405;49.272;8.590;2023-05-10T03:02:11;1.43;;;0.80;;
8737;SDS011;4405;49.272;8.590;2023-05-10T03:04:38;0.50;;;0.50;;
8737;SDS011;4405;49.272;8.590;2023-05-10T03:07:04;0.70;;;0.70;;
8737;SDS011;4405;49.272;8.590;2023-05-10T03:09:30;1.70;;;0.73;;
8737;SDS011;4405;49.272;8.590;2023-05-10T03:12:00;0.80;;;0.80;;
8737;SDS011;4405;49.272;8.590;2023-05-10T03:14:32;1.20;;;0.70;;
8737;SDS011;4405;49.272;8.590;2023-05-10T03:17:03;0.80;;;0.80;;
8737;SDS011;4405;49.272;8.590;2023-05-10T03:19:32;0.70;;;0.70;;
8737;SDS011;4405;49.272;8.590;2023-05-10T03:21:59;1.30;;;0.70;;
8737;SDS011;4405;49.272;8.590;2023-05-10T03:24:26;0.73;;;0.73;;
8737;SDS011;4405;49.272;8.590;2023-05-10T03:26:53;0.60;;;0.60;;
8737;SDS011;4405;49.272;8.590;2023-05-10T03:29:21;0.60;;;0.60;;
8737;SDS011;4405;49.272;8.590;2023-05-10T03:31:48;0.80;;;0.80;;
8737;SDS011;4405;49.272;8.590;2023-05-10T03:34:16;0.70;;;0.70;;
8737;SDS011;4405;49.272;8.590;2023-05-10T03:36:42;0.70;;;0.70;;
8737;SDS011;4405;49.272;8.590;2023-05-10T03:39:08;0.70;;;0.70;;
8737;SDS011;4405;49.272;8.590;2023-05-10T03:41:35;0.80;;;0.80;;
8737;SDS011;4405;49.272;8.590;2023-05-10T03:44:01;0.93;;;0.70;;
8737;SDS011;4405;49.272;8.590;2023-05-10T03:46:28;1.73;;;0.70;;
8737;SDS011;4405;49.272;8.590;2023-05-10T03:48:54;0.73;;;0.73;;
8737;SDS011;4405;49.272;8.590;2023-05-10T03:51:22;0.70;;;0.70;;
8737;SDS011;4405;49.272;8.590;2023-05-10T03:53:49;0.70;;;0.70;;
8737;SDS011;4405;49.272;8.590;2023-05-10T03:56:15;0.87;;;0.80;;
8737;SDS011;4405;49.272;8.590;2023-05-10T03:58:41;1.50;;;0.70;;
8737;SDS011;4405;49.272;8.590;2023-05-10T04:01:08;0.87;;;0.87;;
8737;SDS011;4405;49.272;8.590;2023-05-10T04:03:34;1.40;;;0.87;;
8737;SDS011;4405;49.272;8.590;2023-05-10T04:06:01;0.70;;;0.70;;
8737;SDS011;4405;49.272;8.590;2023-05-10T04:08:29;0.70;;;0.70;;
8737;SDS011;4405;49.272;8.590;2023-05-10T04:11:04;0.83;;;0.83;;
8737;SDS011;4405;49.272;8.590;2023-05-10T04:13:30;0.70;;;0.70;;
8737;SDS011;4405;49.272;8.590;2023-05-10T04:15:57;0.77;;;0.73;;
8737;SDS011;4405;49.272;8.590;2023-05-10T04:18:23;0.90;;;0.90;;
8737;SDS011;4405;49.272;8.590;2023-05-10T04:20:49;0.80;;;0.80;;
8737;SDS011;4405;49.272;8.590;2023-05-10T04:23:16;1.00;;;0.83;;
8737;SDS011;4405;49.272;8.590;2023-05-10T04:25:43;1.07;;;1.07;;
8737;SDS011;4405;49.272;8.590;2023-05-10T04:28:10;2.20;;;0.93;;
8737;SDS011;4405;49.272;8.590;2023-05-10T04:30:36;2.53;;;0.70;;
8737;SDS011;4405;49.272;8.590;2023-05-10T04:33:02;3.63;;;0.83;;
8737;SDS011;4405;49.272;8.590;2023-05-10T04:35:29;0.70;;;0.70;;
8737;SDS011;4405;49.272;8.590;2023-05-10T04:37:55;1.10;;;1.10;;
8737;SDS011;4405;49.272;8.590;2023-05-10T04:40:22;0.87;;;0.87;;
8737;SDS011;4405;49.272;8.590;2023-05-10T04:42:49;1.20;;;0.80;;
8737;SDS011;4405;49.272;8.590;2023-05-10T04:45:16;1.07;;;0.97;;
8737;SDS011;4405;49.272;8.590;2023-05-10T04:47:43;1.13;;;0.93;;
8737;SDS011;4405;49.272;8.590;2023-05-10T04:50:09;0.63;;;0.63;;
8737;SDS011;4405;49.272;8.590;2023-05-10T04:52:35;0.70;;;0.70;;
8737;SDS011;4405;49.272;8.590;2023-05-10T04:55:02;1.30;;;1.30;;
8737;SDS011;4405;49.272;8.590;2023-05-10T04:57:29;1.00;;;1.00;;
8737;SDS011;4405;49.272;8.590;2023-05-10T04:59:57;1.10;;;1.00;;
8737;SDS011;4405;49.272;8.590;2023-05-10T05:02:23;1.00;;;1.00;;
8737;SDS011;4405;49.272;8.590;2023-05-10T05:04:49;1.00;;;1.00;;
8737;SDS011;4405;49.272;8.590;2023-05-10T05:07:16;0.97;;;0.97;;
8737;SDS011;4405;49.272;8.590;2023-05-10T05:09:42;1.10;;;1.10;;
8737;SDS011;4405;49.272;8.590;2023-05-10T05:12:08;0.90;;;0.90;;
8737;SDS011;4405;49.272;8.590;2023-05-10T05:14:38;1.10;;;1.00;;
8737;SDS011;4405;49.272;8.590;2023-05-10T05:17:06;0.97;;;0.97;;
8737;SDS011;4405;49.272;8.590;2023-05-10T05:19:33;1.93;;;1.10;;
8737;SDS011;4405;49.272;8.590;2023-05-10T05:21:59;1.23;;;1.00;;
8737;SDS011;4405;49.272;8.590;2023-05-10T05:24:25;1.13;;;1.07;;
8737;SDS011;4405;49.272;8.590;2023-05-10T05:26:52;0.90;;;0.90;;
8737;SDS011;4405;49.272;8.590;2023-05-10T05:29:18;1.10;;;1.10;;
8737;SDS011;4405;49.272;8.590;2023-05-10T05:31:44;1.03;;;1.03;;
8737;SDS011;4405;49.272;8.590;2023-05-10T05:34:12;1.13;;;1.13;;
8737;SDS011;4405;49.272;8.590;2023-05-10T05:36:38;1.10;;;1.10;;
8737;SDS011;4405;49.272;8.590;2023-05-10T05:39:05;1.40;;;1.13;;
8737;SDS011;4405;49.272;8.590;2023-05-10T05:41:31;1.80;;;1.40;;
8737;SDS011;4405;49.272;8.590;2023-05-10T05:43:57;1.30;;;1.20;;
8737;SDS011;4405;49.272;8.590;2023-05-10T05:46:24;1.57;;;1.40;;
8737;SDS011;4405;49.272;8.590;2023-05-10T05:48:50;2.33;;;1.40;;
8737;SDS011;4405;49.272;8.590;2023-05-10T05:51:18;1.50;;;1.40;;
8737;SDS011;4405;49.272;8.590;2023-05-10T05:53:45;3.43;;;1.20;;
8737;SDS011;4405;49.272;8.590;2023-05-10T05:56:11;1.33;;;1.23;;
8737;SDS011;4405;49.272;8.590;2023-05-10T05:58:37;1.70;;;1.30;;
8737;SDS011;4405;49.272;8.590;2023-05-10T06:01:04;1.47;;;1.20;;
8737;SDS011;4405;49.272;8.590;2023-05-10T06:03:30;1.30;;;1.20;;
8737;SDS011;4405;49.272;8.590;2023-05-10T06:05:57;1.30;;;1.30;;
8737;SDS011;4405;49.272;8.590;2023-05-10T06:08:25;3.03;;;1.00;;
8737;SDS011;4405;49.272;8.590;2023-05-10T06:10:51;1.10;;;1.10;;
8737;SDS011;4405;49.272;8.590;2023-05-10T06:13:18;1.17;;;1.10;;
8737;SDS011;4405;49.272;8.590;2023-05-10T06:15:44;1.10;;;1.10;;
8737;SDS011;4405;49.272;8.590;2023-05-10T06:18:10;0.97;;;0.97;;
8737;SDS011;4405;49.272;8.590;2023-05-10T06:20:37;1.10;;;1.00;;
8737;SDS011;4405;49.272;8.590;2023-05-10T06:23:03;1.10;;;1.10;;
8737;SDS011;4405;49.272;8.590;2023-05-10T06:25:31;1.20;;;1.20;;
8737;SDS011;4405;49.272;8.590;2023-05-10T06:27:57;1.20;;;1.20;;
8737;SDS011;4405;49.272;8.590;2023-05-10T06:30:24;1.20;;;1.20;;
8737;SDS011;4405;49.272;8.590;2023-05-10T06:32:52;1.00;;;1.00;;
8737;SDS011;4405;49.272;8.590;2023-05-10T06:35:18;1.20;;;1.20;;
8737;SDS011;4405;49.272;8.590;2023-05-10T06:37:45;1.30;;;1.20;;
8737;SDS011;4405;49.272;8.590;2023-05-10T06:40:12;1.30;;;1.20;;
8737;SDS011;4405;49.272;8.590;2023-05-10T06:42:40;1.10;;;1.10;;
8737;SDS011;4405;49.272;8.590;2023-05-10T06:45:07;1.07;;;1.07;;
8737;SDS011;4405;49.272;8.590;2023-05-10T06:47:34;1.30;;;1.20;;
8737;SDS011;4405;49.272;8.590;2023-05-10T06:50:00;1.20;;;1.20;;
8737;SDS011;4405;49.272;8.590;2023-05-10T06:52:26;1.10;;;1.00;;
8737;SDS011;4405;49.272;8.590;2023-05-10T06:54:53;1.03;;;1.03;;
8737;SDS011;4405;49.272;8.590;2023-05-10T06:57:19;1.13;;;1.07;;
8737;SDS011;4405;49.272;8.590;2023-05-10T06:59:47;1.17;;;1.17;;
8737;SDS011;4405;49.272;8.590;2023-05-10T07:02:14;1.50;;;1.40;;
8737;SDS011;4405;49.272;8.590;2023-05-10T07:04:41;1.30;;;1.30;;
8737;SDS011;4405;49.272;8.590;2023-05-10T07:07:07;1.27;;;1.27;;
8737;SDS011;4405;49.272;8.590;2023-05-10T07:09:34;1.77;;;1.30;;
8737;SDS011;4405;49.272;8.590;2023-05-10T07:12:00;1.50;;;1.20;;
8737;SDS011;4405;49.272;8.590;2023-05-10T07:14:27;1.50;;;1.40;;
8737;SDS011;4405;49.272;8.590;2023-05-10T07:16:55;1.30;;;1.30;;
8737;SDS011;4405;49.272;8.590;2023-05-10T07:19:21;1.23;;;1.23;;
8737;SDS011;4405;49.272;8.590;2023-05-10T07:21:48;1.50;;;1.20;;
8737;SDS011;4405;49.272;8.590;2023-05-10T07:24:15;1.27;;;1.27;;
8737;SDS011;4405;49.272;8.590;2023-05-10T07:26:42;1.30;;;1.20;;
8737;SDS011;4405;49.272;8.590;2023-05-10T07:29:08;1.60;;;1.43;;
8737;SDS011;4405;49.272;8.590;2023-05-10T07:31:35;1.43;;;1.33;;
8737;SDS011;4405;49.272;8.590;2023-05-10T07:34:02;1.50;;;1.50;;
8737;SDS011;4405;49.272;8.590;2023-05-10T07:36:29;2.20;;;1.20;;
8737;SDS011;4405;49.272;8.590;2023-05-10T07:38:55;1.20;;;1.10;;
8737;SDS011;4405;49.272;8.590;2023-05-10T07:41:22;1.50;;;1.40;;
8737;SDS011;4405;49.272;8.590;2023-05-10T07:43:49;1.50;;;1.37;;
8737;SDS011;4405;49.272;8.590;2023-05-10T07:46:15;4.10;;;1.87;;
8737;SDS011;4405;49.272;8.590;2023-05-10T07:48:41;1.50;;;1.40;;
8737;SDS011;4405;49.272;8.590;2023-05-10T07:51:09;2.03;;;1.70;;
8737;SDS011;4405;49.272;8.590;2023-05-10T07:53:35;1.50;;;1.50;;
8737;SDS011;4405;49.272;8.590;2023-05-10T07:58:45;2.00;;;1.60;;
8737;SDS011;4405;49.272;8.590;2023-05-10T08:01:11;1.90;;;1.80;;
8737;SDS011;4405;49.272;8.590;2023-05-10T08:03:38;2.63;;;1.50;;
8737;SDS011;4405;49.272;8.590;2023-05-10T08:06:04;1.83;;;1.60;;
8737;SDS011;4405;49.272;8.590;2023-05-10T08:08:32;2.33;;;1.70;;
8737;SDS011;4405;49.272;8.590;2023-05-10T08:10:58;1.60;;;1.50;;
8737;SDS011;4405;49.272;8.590;2023-05-10T08:13:25;1.27;;;1.17;;
8737;SDS011;4405;49.272;8.590;2023-05-10T08:15:51;2.47;;;1.40;;
8737;SDS011;4405;49.272;8.590;2023-05-10T08:18:18;4.07;;;1.40;;
8737;SDS011;4405;49.272;8.590;2023-05-10T08:20:44;3.13;;;1.37;;
8737;SDS011;4405;49.272;8.590;2023-05-10T08:23:11;1.20;;;1.20;;
8737;SDS011;4405;49.272;8.590;2023-05-10T08:25:39;1.60;;;1.10;;
8737;SDS011;4405;49.272;8.590;2023-05-10T08:28:05;2.07;;;1.30;;
8737;SDS011;4405;49.272;8.590;2023-05-10T08:30:32;1.30;;;1.30;;
8737;SDS011;4405;49.272;8.590;2023-05-10T08:32:58;1.40;;;1.30;;
8737;SDS011;4405;49.272;8.590;2023-05-10T08:35:24;1.33;;;1.30;;
8737;SDS011;4405;49.272;8.590;2023-05-10T08:37:51;1.30;;;1.20;;
8737;SDS011;4405;49.272;8.590;2023-05-10T08:40:18;1.53;;;1.50;;
8737;SDS011;4405;49.272;8.590;2023-05-10T08:42:47;1.70;;;1.70;;
8737;SDS011;4405;49.272;8.590;2023-05-10T08:45:17;2.40;;;2.20;;
8737;SDS011;4405;49.272;8.590;2023-05-10T08:47:44;1.50;;;1.50;;
8737;SDS011;4405;49.272;8.590;2023-05-10T08:50:10;1.77;;;1.70;;
8737;SDS011;4405;49.272;8.590;2023-05-10T08:52:38;1.50;;;1.50;;
8737;SDS011;4405;49.272;8.590;2023-05-10T08:55:05;2.77;;;1.83;;
8737;SDS011;4405;49.272;8.590;2023-05-10T08:57:32;1.90;;;1.80;;
8737;SDS011;4405;49.272;8.590;2023-05-10T09:00:00;2.33;;;2.20;;
8737;SDS011;4405;49.272;8.590;2023-05-10T09:02:26;1.70;;;1.70;;
8737;SDS011;4405;49.272;8.590;2023-05-10T09:04:53;2.10;;;2.00;;
8737;SDS011;4405;49.272;8.590;2023-05-10T09:07:19;1.80;;;1.80;;
8737;SDS011;4405;49.272;8.590;2023-05-10T09:09:46;1.60;;;1.50;;
8737;SDS011;4405;49.272;8.590;2023-05-10T09:12:13;1.47;;;1.40;;
8737;SDS011;4405;49.272;8.590;2023-05-10T09:14:40;1.07;;;1.07;;
8737;SDS011;4405;49.272;8.590;2023-05-10T09:17:09;1.30;;;1.20;;
8737;SDS011;4405;49.272;8.590;2023-05-10T09:19:35;1.03;;;1.03;;
8737;SDS011;4405;49.272;8.590;2023-05-10T09:22:02;4.83;;;1.10;;
8737;SDS011;4405;49.272;8.590;2023-05-10T09:24:28;1.40;;;1.10;;
8737;SDS011;4405;49.272;8.590;2023-05-10T09:26:55;1.80;;;1.20;;
8737;SDS011;4405;49.272;8.590;2023-05-10T09:29:22;1.00;;;0.90;;
8737;SDS011;4405;49.272;8.590;2023-05-10T09:31:49;1.00;;;1.00;;
8737;SDS011;4405;49.272;8.590;2023-05-10T09:34:18;1.90;;;1.10;;
8737;SDS011;4405;49.272;8.590;2023-05-10T09:36:52;2.87;;;1.23;;
8737;SDS011;4405;49.272;8.590;2023-05-10T09:39:19;1.27;;;1.07;;
8737;SDS011;4405;49.272;8.590;2023-05-10T09:41:45;1.00;;;1.00;;
8737;SDS011;4405;49.272;8.590;2023-05-10T09:44:14;1.10;;;1.10;;
8737;SDS011;4405;49.272;8.590;2023-05-10T09:46:42;1.27;;;1.20;;
8737;SDS011;4405;49.272;8.590;2023-05-10T09:49:09;1.07;;;1.07;;
8737;SDS011;4405;49.272;8.590;2023-05-10T09:51:37;1.10;;;1.10;;
8737;SDS011;4405;49.272;8.590;2023-05-10T09:54:09;1.40;;;1.10;;
8737;SDS011;4405;49.272;8.590;2023-05-10T09:56:36;1.63;;;1.20;;
8737;SDS011;4405;49.272;8.590;2023-05-10T09:59:04;2.23;;;0.90;;
8737;SDS011;4405;49.272;8.590;2023-05-10T10:01:31;3.20;;;0.93;;
8737;SDS011;4405;49.272;8.590;2023-05-10T10:03:57;3.57;;;1.40;;
8737;SDS011;4405;49.272;8.590;2023-05-10T10:06:24;1.00;;;1.00;;
8737;SDS011;4405;49.272;8.590;2023-05-10T10:08:52;1.10;;;1.10;;
8737;SDS011;4405;49.272;8.590;2023-05-10T10:11:21;1.10;;;1.03;;
8737;SDS011;4405;49.272;8.590;2023-05-10T10:13:48;2.43;;;1.00;;
8737;SDS011;4405;49.272;8.590;2023-05-10T10:16:14;1.00;;;1.00;;
8737;SDS011;4405;49.272;8.590;2023-05-10T10:18:41;1.00;;;1.00;;
8737;SDS011;4405;49.272;8.590;2023-05-10T10:21:07;0.90;;;0.90;;
8737;SDS011;4405;49.272;8.590;2023-05-10T10:23:34;1.53;;;0.90;;
8737;SDS011;4405;49.272;8.590;2023-05-10T10:26:02;1.50;;;0.80;;
8737;SDS011;4405;49.272;8.590;2023-05-10T10:28:32;2.10;;;0.90;;
8737;SDS011;4405;49.272;8.590;2023-05-10T10:31:00;2.97;;;0.90;;
8737;SDS011;4405;49.272;8.590;2023-05-10T10:33:33;3.43;;;0.90;;
8737;SDS011;4405;49.272;8.590;2023-05-10T10:36:02;0.90;;;0.90;;
8737;SDS011;4405;49.272;8.590;2023-05-10T10:38:35;0.80;;;0.80;;
8737;SDS011;4405;49.272;8.590;2023-05-10T10:41:07;3.33;;;0.90;;
8737;SDS011;4405;49.272;8.590;2023-05-10T10:43:34;1.90;;;0.90;;
8737;SDS011;4405;49.272;8.590;2023-05-10T10:46:10;1.07;;;0.80;;
8737;SDS011;4405;49.272;8.590;2023-05-10T10:48:36;0.80;;;0.80;;
8737;SDS011;4405;49.272;8.590;2023-05-10T10:51:03;1.00;;;1.00;;
8737;SDS011;4405;49.272;8.590;2023-05-10T10:53:29;0.97;;;0.87;;
8737;SDS011;4405;49.272;8.590;2023-05-10T10:56:02;0.80;;;0.80;;
8737;SDS011;4405;49.272;8.590;2023-05-10T10:58:32;2.23;;;0.80;;
8737;SDS011;4405;49.272;8.590;2023-05-10T11:01:11;0.73;;;0.73;;
8737;SDS011;4405;49.272;8.590;2023-05-10T11:03:38;1.53;;;0.80;;
8737;SDS011;4405;49.272;8.590;2023-05-10T11:06:04;1.47;;;0.90;;
8737;SDS011;4405;49.272;8.590;2023-05-10T11:08:31;1.00;;;0.83;;
8737;SDS011;4405;49.272;8.590;2023-05-10T11:11:05;0.90;;;0.90;;
8737;SDS011;4405;49.272;8.590;2023-05-10T11:13:34;1.10;;;1.00;;
8737;SDS011;4405;49.272;8.590;2023-05-10T11:16:10;0.90;;;0.90;;
8737;SDS011;4405;49.272;8.590;2023-05-10T11:18:36;0.90;;;0.90;;
8737;SDS011;4405;49.272;8.590;2023-05-10T11:21:03;3.17;;;1.13;;
8737;SDS011;4405;49.272;8.590;2023-05-10T11:23:31;2.27;;;1.10;;
8737;SDS011;4405;49.272;8.590;2023-05-10T11:25:58;1.97;;;1.20;;
8737;SDS011;4405;49.272;8.590;2023-05-10T11:28:25;1.80;;;1.00;;
8737;SDS011;4405;49.272;8.590;2023-05-10T11:30:53;2.00;;;1.10;;
8737;SDS011;4405;49.272;8.590;2023-05-10T11:33:20;4.27;;;1.00;;
8737;SDS011;4405;49.272;8.590;2023-05-10T11:35:46;3.00;;;1.10;;
8737;SDS011;4405;49.272;8.590;2023-05-10T11:38:13;1.13;;;1.13;;
8737;SDS011;4405;49.272;8.590;2023-05-10T11:40:40;1.43;;;0.90;;
8737;SDS011;4405;49.272;8.590;2023-05-10T11:43:06;1.20;;;1.10;;
8737;SDS011;4405;49.272;8.590;2023-05-10T11:45:34;0.93;;;0.93;;
8737;SDS011;4405;49.272;8.590;2023-05-10T11:48:02;0.90;;;0.90;;
8737;SDS011;4405;49.272;8.590;2023-05-10T11:50:29;0.90;;;0.90;;
8737;SDS011;4405;49.272;8.590;2023-05-10T11:52:55;2.03;;;1.30;;
8737;SDS011;4405;49.272;8.590;2023-05-10T11:55:22;2.30;;;1.30;;
8737;SDS011;4405;49.272;8.590;2023-05-10T11:57:51;6.03;;;1.40;;
8737;SDS011;4405;49.272;8.590;2023-05-10T12:00:17;1.50;;;1.20;;
8737;SDS011;4405;49.272;8.590;2023-05-10T12:02:44;1.90;;;1.10;;
8737;SDS011;4405;49.272;8.590;2023-05-10T12:05:12;1.60;;;1.40;;
8737;SDS011;4405;49.272;8.590;2023-05-10T12:07:39;1.63;;;0.90;;
8737;SDS011;4405;49.272;8.590;2023-05-10T12:10:06;1.90;;;1.10;;
8737;SDS011;4405;49.272;8.590;2023-05-10T12:12:39;1.00;;;1.00;;
8737;SDS011;4405;49.272;8.590;2023-05-10T12:15:09;1.17;;;1.10;;
8737;SDS011;4405;49.272;8.590;2023-05-10T12:17:37;3.53;;;1.00;;
8737;SDS011;4405;49.272;8.590;2023-05-10T12:20:14;2.13;;;0.90;;
8737;SDS011;4405;49.272;8.590;2023-05-10T12:22:40;3.17;;;0.90;;
8737;SDS011;4405;49.272;8.590;2023-05-10T12:25:08;2.57;;;0.97;;
8737;SDS011;4405;49.272;8.590;2023-05-10T12:27:34;2.77;;;0.87;;
8737;SDS011;4405;49.272;8.590;2023-05-10T12:30:01;1.03;;;1.00;;
8737;SDS011;4405;49.272;8.590;2023-05-10T12:32:37;1.47;;;0.83;;
8737;SDS011;4405;49.272;8.590;2023-05-10T12:35:03;2.17;;;1.00;;
8737;SDS011;4405;49.272;8.590;2023-05-10T12:37:31;1.57;;;1.00;;
8737;SDS011;4405;49.272;8.590;2023-05-10T12:40:00;1.03;;;1.03;;
8737;SDS011;4405;49.272;8.590;2023-05-10T12:42:27;4.60;;;1.00;;
8737;SDS011;4405;49.272;8.590;2023-05-10T12:44:54;2.03;;;1.10;;
8737;SDS011;4405;49.272;8.590;2023-05-10T12:47:21;2.30;;;0.90;;
8737;SDS011;4405;49.272;8.590;2023-05-10T12:49:47;1.30;;;1.20;;
8737;SDS011;4405;49.272;8.590;2023-05-10T12:52:14;1.80;;;1.00;;
8737;SDS011;4405;49.272;8.590;2023-05-10T12:54:42;3.17;;;1.00;;
8737;SDS011;4405;49.272;8.590;2023-05-10T12:57:08;1.87;;;0.80;;
8737;SDS011;4405;49.272;8.590;2023-05-10T12:59:35;2.73;;;1.10;;
8737;SDS011;4405;49.272;8.590;2023-05-10T13:02:01;1.00;;;1.00;;
8737;SDS011;4405;49.272;8.590;2023-05-10T13:04:28;1.70;;;1.30;;
8737;SDS011;4405;49.272;8.590;2023-05-10T13:06:54;4.77;;;1.40;;
8737;SDS011;4405;49.272;8.590;2023-05-10T13:09:23;2.20;;;1.30;;
8737;SDS011;4405;49.272;8.590;2023-05-10T13:11:51;2.00;;;1.20;;
8737;SDS011;4405;49.272;8.590;2023-05-10T13:14:18;1.17;;;1.17;;
8737;SDS011;4405;49.272;8.590;2023-05-10T13:16:45;1.10;;;1.10;;
8737;SDS011;4405;49.272;8.590;2023-05-10T13:19:12;2.50;;;1.23;;
8737;SDS011;4405;49.272;8.590;2023-05-10T13:21:38;1.00;;;1.00;;
8737;SDS011;4405;49.272;8.590;2023-05-10T13:24:05;2.20;;;1.20;;
8737;SDS011;4405;49.272;8.590;2023-05-10T13:26:32;3.17;;;1.23;;
8737;SDS011;4405;49.272;8.590;2023-05-10T13:29:00;2.07;;;1.20;;
8737;SDS011;4405;49.272;8.590;2023-05-10T13:31:26;2.20;;;1.30;;
8737;SDS011;4405;49.272;8.590;2023-05-10T13:33:52;3.00;;;1.10;;
8737;SDS011;4405;49.272;8.590;2023-05-10T13:36:19;1.20;;;1.10;;
8737;SDS011;4405;49.272;8.590;2023-05-10T13:38:45;1.67;;;1.30;;
8737;SDS011;4405;49.272;8.590;2023-05-10T13:41:11;1.00;;;1.00;;
8737;SDS011;4405;49.272;8.590;2023-05-10T13:43:38;1.43;;;1.00;;
8737;SDS011;4405;49.272;8.590;2023-05-10T13:46:06;1.07;;;1.07;;
8737;SDS011;4405;49.272;8.590;2023-05-10T13:48:32;3.33;;;1.10;;
8737;SDS011;4405;49.272;8.590;2023-05-10T13:50:58;1.47;;;1.10;;
8737;SDS011;4405;49.272;8.590;2023-05-10T13:53:25;1.47;;;1.00;;
8737;SDS011;4405;49.272;8.590;2023-05-10T13:55:51;0.97;;;0.90;;
8737;SDS011;4405;49.272;8.590;2023-05-10T13:58:18;0.80;;;0.80;;
8737;SDS011;4405;49.272;8.590;2023-05-10T14:00:44;0.80;;;0.80;;
8737;SDS011;4405;49.272;8.590;2023-05-10T14:03:12;1.23;;;0.90;;
8737;SDS011;4405;49.272;8.590;2023-05-10T14:05:38;1.27;;;0.90;;
8737;SDS011;4405;49.272;8.590;2023-05-10T14:08:05;4.00;;;1.10;;
8737;SDS011;4405;49.272;8.590;2023-05-10T14:10:32;1.10;;;0.90;;
8737;SDS011;4405;49.272;8.590;2023-05-10T14:12:58;2.20;;;0.90;;
8737;SDS011;4405;49.272;8.590;2023-05-10T14:15:25;0.97;;;0.80;;
8737;SDS011;4405;49.272;8.590;2023-05-10T14:17:51;1.20;;;0.90;;
8737;SDS011;4405;49.272;8.590;2023-05-10T14:20:19;1.60;;;1.00;;
8737;SDS011;4405;49.272;8.590;2023-05-10T14:22:45;1.77;;;0.80;;
8737;SDS011;4405;49.272;8.590;2023-05-10T14:25:12;2.00;;;0.80;;
8737;SDS011;4405;49.272;8.590;2023-05-10T14:27:38;0.80;;;0.80;;
8737;SDS011;4405;49.272;8.590;2023-05-10T14:30:05;1.77;;;0.90;;
8737;SDS011;4405;49.272;8.590;2023-05-10T14:32:32;2.20;;;0.70;;
8737;SDS011;4405;49.272;8.590;2023-05-10T14:34:58;2.13;;;0.87;;
8737;SDS011;4405;49.272;8.590;2023-05-10T14:37:26;1.80;;;1.00;;
8737;SDS011;4405;49.272;8.590;2023-05-10T14:39:53;2.27;;;0.90;;
8737;SDS011;4405;49.272;8.590;2023-05-10T14:42:19;1.70;;;1.20;;
8737;SDS011;4405;49.272;8.590;2023-05-10T14:44:46;0.70;;;0.70;;
8737;SDS011;4405;49.272;8.590;2023-05-10T14:47:12;0.90;;;0.90;;
8737;SDS011;4405;49.272;8.590;2023-05-10T14:49:39;0.70;;;0.70;;
8737;SDS011;4405;49.272;8.590;2023-05-10T14:52:05;0.80;;;0.80;;
8737;SDS011;4405;49.272;8.590;2023-05-10T14:54:33;1.27;;;0.87;;
8737;SDS011;4405;49.272;8.590;2023-05-10T14:57:00;0.90;;;0.90;;
8737;SDS011;4405;49.272;8.590;2023-05-10T14:59:26;0.87;;;0.80;;
8737;SDS011;4405;49.272;8.590;2023-05-10T15:01:52;1.70;;;0.80;;
8737;SDS011;4405;49.272;8.590;2023-05-10T15:04:19;1.20;;;0.90;;
8737;SDS011;4405;49.272;8.590;2023-05-10T15:06:46;1.50;;;0.60;;
8737;SDS011;4405;49.272;8.590;2023-05-10T15:09:12;0.80;;;0.80;;
8737;SDS011;4405;49.272;8.590;2023-05-10T15:11:40;0.90;;;0.90;;
8737;SDS011;4405;49.272;8.590;2023-05-10T15:14:06;1.00;;;0.93;;
8737;SDS011;4405;49.272;8.590;2023-05-10T15:16:33;2.57;;;0.90;;
8737;SDS011;4405;49.272;8.590;2023-05-10T15:18:59;1.07;;;0.90;;